Latest Weather Observations for Holsworthy

IDN60801

Issued at 4:42 pm EST Thursday 18 July 2019 (issued every 10 minutes, with the page automatically refreshed every 10 minutes)

About weather observations | Map of weather stations | Latest weather observations for NSW | Other Formats
Station Details ID: 066161 Name: HOLSWORTHY AERODROME AWS Lat: -33.99 Lon: 150.95 Height: 68.16 m
Data from the previous 72 hours. | See also: Recent months at Holsworthy
Date/Time
EST
Temp
°C
App
Temp
°C
Dew
Point
°C
Rel
Hum
%
Delta-T
°C
Wind Press
QNH
hPa
Press
MSL
hPa
Rain since
9am
mm
Dir  Spd
km/h
Gust
km/h
Spd
kts
Gust
kts
18/04:30pm 17.6 13.7 -1.6 27 8.0 SW 9 15 5 8 1015.5 1015.5 0.0
18/04:00pm 18.3 13.5 -2.6 24 8.6 SW 13 19 7 10 1015.1 1015.1 0.0
18/03:30pm 19.0 14.7 -2.0 24 8.9 SW 11 17 6 9 1014.8 1014.8 0.0
18/03:00pm 19.1 13.5 -3.1 22 9.2 SW 17 28 9 15 1014.5 1014.5 0.0
18/02:30pm 19.2 14.0 -2.4 23 9.1 WSW 15 24 8 13 1014.2 1014.3 0.0
18/02:00pm 19.1 13.7 -1.4 25 8.8 WSW 17 28 9 15 1014.1 1014.2 0.0
18/01:30pm 18.8 13.4 -1.6 25 8.7 SW 17 26 9 14 1014.4 1014.4 0.0
18/01:00pm 18.5 13.2 -0.8 27 8.3 WSW 17 26 9 14 1014.4 1014.4 0.0
18/12:30pm 18.3 13.2 0.9 31 7.7 WSW 17 28 9 15 1014.6 1014.6 0.0
18/12:00pm 17.5 13.7 1.9 35 7.0 WNW 11 22 6 12 1015.1 1015.1 0.0
18/11:30am 16.8 12.8 2.8 39 6.4 W 13 22 7 12 1015.4 1015.4 0.0
18/11:00am 16.2 11.8 2.6 40 6.1 W 15 20 8 11 1015.7 1015.7 0.0
18/10:30am 15.5 10.4 3.0 43 5.7 W 19 26 10 14 1016.0 1016.0 0.0
18/10:00am 14.9 9.8 4.3 49 4.9 WSW 20 30 11 16 1016.1 1016.1 0.0
18/09:30am 14.3 9.2 4.3 51 4.6 W 20 30 11 16 1015.8 1015.8 0.0
18/09:00am 13.5 8.5 4.6 55 4.1 W 20 32 11 17 1015.5 1015.5 0.0
18/08:30am 12.8 8.0 4.8 58 3.7 W 19 28 10 15 1015.1 1015.1 0.0
18/08:00am 12.1 7.0 4.3 59 3.5 W 20 30 11 16 1015.1 1015.1 0.0
18/07:30am 10.8 5.8 3.8 62 3.1 W 19 26 10 14 1015.0 1015.0 0.0
18/07:00am 10.5 5.9 3.8 63 3.0 W 17 24 9 13 1014.5 1014.5 0.0
18/06:30am 9.3 5.8 3.7 68 2.4 W 11 17 6 9 1013.9 1014.0 0.0
18/06:00am 9.2 6.4 3.2 66 2.6 W 7 9 4 5 1013.8 1013.9 0.0
18/05:30am 10.4 7.3 3.4 62 3.1 WNW 9 11 5 6 1013.5 1013.6 0.0
18/05:00am 10.7 7.2 3.5 61 3.2 W 11 20 6 11 1013.4 1013.5 0.0
18/04:30am 10.7 6.8 3.3 60 3.2 W 13 20 7 11 1013.1 1013.2 0.0
18/04:00am 10.8 7.6 3.1 59 3.4 W 9 13 5 7 1013.4 1013.5 0.0
18/03:30am 11.6 8.1 3.4 57 3.6 WNW 11 17 6 9 1013.2 1013.3 0.0
18/03:00am 11.8 7.5 3.3 56 3.8 W 15 26 8 14 1013.2 1013.3 0.0
18/02:30am 12.2 6.6 3.4 55 3.9 W 22 32 12 17 1013.0 1013.1 0.0
18/02:00am 12.3 5.5 3.0 53 4.1 W 28 44 15 24 1012.8 1012.9 0.0
18/01:40am 12.5 5.7 3.2 53 4.1 W 28 46 15 25 1012.6 1012.7 0.0
18/01:30am 12.3 5.5 3.0 53 4.1 W 28 41 15 22 1012.7 1012.8 0.0
18/01:00am 12.4 6.3 2.8 52 4.2 W 24 43 13 23 1012.7 1012.8 0.0
18/12:30am 11.9 6.2 2.6 53 4.1 W 22 35 12 19 1013.3 1013.4 0.0
18/12:00am 11.9 6.5 2.4 52 4.1 WNW 20 30 11 16 1013.7 1013.8 0.0
 
Date/Time
EST
Temp
°C
App
Temp
°C
Dew
Point
°C
Rel
Hum
%
Delta-T
°C
Wind Press
QNH
hPa
Press
MSL
hPa
Rain since
9am
mm
Dir  Spd
km/h
Gust
km/h
Spd
kts
Gust
kts
17/11:30pm 12.4 7.5 2.0 49 4.5 W 17 28 9 15 1014.2 1014.3 0.0
17/11:00pm 12.7 7.2 1.7 47 4.7 W 20 43 11 23 1013.7 1013.8 0.0
17/10:30pm 12.7 7.1 1.4 46 4.8 W 20 35 11 19 1013.9 1014.0 0.0
17/10:00pm 12.8 7.3 0.9 44 5.0 WNW 19 32 10 17 1014.4 1014.4 0.0
17/09:30pm 12.6 7.5 0.7 44 5.0 WNW 17 30 9 16 1014.6 1014.6 0.0
17/09:00pm 12.6 7.1 0.7 44 5.0 WNW 19 33 10 18 1015.1 1015.1 0.0
17/08:30pm 12.9 5.7 0.6 43 5.2 W 28 54 15 29 1015.2 1015.2 0.0
17/08:17pm 13.0 5.8 1.0 44 5.1 W 28 50 15 27 1015.2 1015.2 0.0
17/08:00pm 13.0 8.0 1.4 45 5.0 W 17 32 9 17 1014.9 1014.9 0.0
17/07:30pm 13.2 7.3 1.5 45 5.0 W 22 37 12 20 1014.4 1014.4 0.0
17/07:00pm 13.4 8.0 2.3 47 4.9 W 20 37 11 20 1013.9 1014.0 0.0
17/06:30pm 13.5 8.3 2.4 47 4.9 W 19 30 10 16 1013.5 1013.6 0.0
17/06:00pm 13.7 7.5 2.3 46 5.0 W 24 35 13 19 1013.3 1013.4 0.0
17/05:30pm 14.2 8.0 2.1 44 5.3 WSW 24 37 13 20 1013.1 1013.2 0.0
17/05:00pm 15.3 10.0 1.8 40 6.0 W 19 30 10 16 1013.0 1013.1 0.0
17/04:30pm 17.6 13.7 3.5 39 6.6 W 13 26 7 14 1012.9 1013.0 0.0
17/04:00pm 18.8 16.5 4.6 39 6.8 W 6 9 3 5 1012.6 1012.7 0.0
17/03:30pm 18.7 15.4 4.8 40 6.7 W 11 17 6 9 1012.9 1013.0 0.0
17/03:00pm 18.5 14.4 4.3 39 6.8 W 15 24 8 13 1013.2 1013.3 0.0
17/02:30pm 18.2 13.7 4.4 40 6.6 W 17 22 9 12 1013.5 1013.6 0.0
17/02:00pm 18.2 13.7 4.4 40 6.6 W 17 28 9 15 1013.8 1013.9 0.0
17/01:30pm 17.9 13.1 4.5 41 6.4 W 19 30 10 16 1014.2 1014.3 0.0
17/01:00pm 17.6 13.6 4.9 43 6.1 WNW 15 20 8 11 1014.7 1014.7 0.0
17/12:30pm 17.2 13.6 4.9 44 5.9 WNW 13 20 7 11 1015.4 1015.4 0.0
17/12:00pm 16.4 12.0 4.8 46 5.5 NW 17 24 9 13 1016.2 1016.2 0.0
17/11:30am 15.7 11.3 4.7 48 5.2 WNW 17 28 9 15 1017.0 1017.0 0.0
17/11:00am 15.2 11.2 5.1 51 4.8 WNW 15 24 8 13 1017.8 1017.8 0.0
17/10:30am 14.2 10.8 6.1 58 3.9 NNW 13 17 7 9 1018.2 1018.2 0.0
17/10:00am 13.4 9.9 5.6 59 3.7 NW 13 19 7 10 1018.5 1018.5 0.0
17/09:30am 12.4 9.7 5.6 63 3.2 WNW 9 13 5 7 1018.7 1018.7 0.0
17/09:00am 11.4 8.6 5.3 66 2.8 NW 9 15 5 8 1018.8 1018.8 0.0
17/08:30am 10.7 8.5 6.1 73 2.1 NW 7 9 4 5 1019.0 1019.0 0.0
17/08:00am 8.9 6.5 4.3 73 2.0 W 6 7 3 4 1018.8 1018.8 0.0
17/07:30am 8.7 6.3 4.5 75 1.9 W 6 7 3 4 1018.8 1018.8 0.0
17/07:00am 8.6 4.9 4.4 75 1.8 SW 13 17 7 9 1018.7 1018.7 0.0
17/06:30am 8.1 4.8 4.3 77 1.7 SW 11 15 6 8 1018.5 1018.5 0.0
17/06:00am 7.4 4.5 4.4 81 1.3 WSW 9 13 5 7 1018.3 1018.3 0.0
17/05:30am 6.4 3.7 3.7 83 1.1 W 7 9 4 5 1018.3 1018.3 0.0
17/05:00am 7.1 4.2 4.4 83 1.2 WSW 9 13 5 7 1018.0 1018.0 0.0
17/04:30am 7.4 4.9 4.0 79 1.5 WNW 6 7 3 4 1018.2 1018.2 0.0
17/04:00am 9.0 5.7 4.6 74 2.0 SW 11 15 6 8 1018.1 1018.1 0.0
17/03:30am 8.6 5.3 4.8 77 1.7 SW 11 15 6 8 1018.4 1018.4 0.0
17/03:00am 7.7 4.8 4.5 80 1.4 SW 9 11 5 6 1018.5 1018.5 0.0
17/02:30am 7.3 4.6 3.7 78 1.5 W 7 9 4 5 1018.8 1018.8 0.0
17/02:00am 8.3 5.3 4.3 76 1.7 SW 9 13 5 7 1018.9 1018.9 0.0
17/01:30am 8.0 5.0 4.0 76 1.7 WSW 9 11 5 6 1019.0 1019.0 0.0
17/01:00am 8.5 6.0 3.8 72 2.0 WSW 6 9 3 5 1019.1 1019.1 0.0
17/12:30am 8.9 5.5 4.1 72 2.1 WSW 11 19 6 10 1019.3 1019.3 0.0
17/12:00am 8.7 5.6 3.7 71 2.2 WSW 9 15 5 8 1019.4 1019.5 0.0
 
Date/Time
EST
Temp
°C
App
Temp
°C
Dew
Point
°C
Rel
Hum
%
Delta-T
°C
Wind Press
QNH
hPa
Press
MSL
hPa
Rain since
9am
mm
Dir  Spd
km/h
Gust
km/h
Spd
kts
Gust
kts
16/11:30pm 8.9 6.2 3.7 70 2.3 WNW 7 9 4 5 1019.6 1019.7 0.0
16/11:00pm 8.6 5.8 3.2 69 2.3 W 7 11 4 6 1019.6 1019.7 0.0
16/10:30pm 9.8 7.1 3.5 65 2.8 W 7 9 4 5 1019.6 1019.7 0.0
16/10:00pm 10.3 8.1 3.3 62 3.0 WSW 4 7 2 4 1019.6 1019.7 0.0
16/09:30pm 11.4 7.6 3.7 59 3.4 WSW 13 19 7 10 1019.4 1019.5 0.0
16/09:00pm 11.3 8.5 3.3 58 3.5 W 7 13 4 7 1019.4 1019.5 0.0
16/08:30pm 11.6 8.0 3.1 56 3.7 WSW 11 15 6 8 1019.5 1019.6 0.0
16/08:00pm 11.9 8.0 3.2 55 3.8 WSW 13 17 7 9 1019.7 1019.8 0.0
16/07:30pm 12.0 8.7 2.7 53 4.1 WSW 9 15 5 8 1019.6 1019.7 0.0
16/07:00pm 13.1 8.4 2.9 50 4.5 W 17 24 9 13 1019.2 1019.2 0.0
16/06:30pm 13.1 9.5 2.9 50 4.5 W 11 19 6 10 1018.7 1018.7 0.0
16/06:00pm 14.0 9.6 2.9 47 4.9 W 15 24 8 13 1018.3 1018.3 0.0
16/05:30pm 14.9 9.8 2.8 44 5.4 WSW 19 30 10 16 1018.0 1018.0 0.0
16/05:00pm 15.9 9.8 2.7 41 6.0 WSW 24 37 13 20 1017.5 1017.5 0.0
16/04:30pm 17.1 11.9 2.7 38 6.6 WSW 19 30 10 16 1017.4 1017.4 0.0
16/04:00pm 17.9 12.2 2.6 36 7.0 WSW 22 35 12 19 1016.9 1016.9 0.0
16/03:30pm 18.6 12.4 2.0 33 7.6 WSW 24 32 13 17 1016.5 1016.5 0.0
16/03:00pm 19.1 13.9 2.5 33 7.7 W 19 28 10 15 1016.0 1016.0 0.0
16/02:30pm 19.3 13.4 1.8 31 8.0 WSW 22 35 12 19 1015.9 1015.9 0.0
16/02:00pm 19.5 14.0 1.9 31 8.1 W 20 37 11 20 1015.9 1015.9 0.0
16/01:30pm 19.5 14.4 3.2 34 7.7 W 19 30 10 16 1016.1 1016.1 0.0
16/01:00pm 19.4 13.6 2.3 32 7.9 W 22 37 12 20 1016.3 1016.3 0.0
16/12:30pm 18.9 14.1 2.7 34 7.5 WSW 17 28 9 15 1016.7 1016.7 0.0
16/12:00pm 18.0 13.1 3.9 39 6.6 WSW 19 28 10 15 1017.2 1017.2 0.0
16/11:30am 17.5 14.4 5.4 45 5.9 W 11 17 6 9 1017.9 1017.9 0.0
16/11:00am 16.0 12.4 5.0 48 5.2 W 13 19 7 10 1018.5 1018.5 0.0
16/10:30am 15.3 11.8 5.5 52 4.7 WSW 13 19 7 10 1018.8 1018.8 0.0
16/10:00am 14.1 10.1 4.9 54 4.3 W 15 24 8 13 1018.8 1018.8 0.0
16/09:30am 12.4 10.1 5.8 64 3.1 W 7 11 4 6 1018.8 1018.8 0.0
16/09:00am 10.2 7.7 5.0 70 2.4 W 7 11 4 6 1018.6 1018.6 0.0
16/08:30am 8.5 6.1 4.1 74 1.9 N 6 7 3 4 1018.6 1018.6 0.0
16/08:00am 7.3 4.6 3.7 78 1.5 NNW 7 9 4 5 1018.6 1018.6 0.0
16/07:30am 4.6 1.9 2.6 87 0.8 NNE 6 9 3 5 1018.5 1018.5 0.0
16/07:00am 4.8 2.0 2.3 84 1.0 W 6 9 3 5 1018.2 1018.2 0.0
16/06:30am 5.4 2.2 2.8 83 1.1 N 9 11 5 6 1018.0 1018.0 0.0
16/06:00am 6.7 3.4 2.6 75 1.7 WSW 9 19 5 10 1017.1 1017.1 0.0
16/05:30am 7.1 3.9 3.0 75 1.7 SW 9 13 5 7 1016.7 1016.7 0.0
16/05:00am 6.9 4.0 2.6 74 1.8 WSW 7 9 4 5 1016.8 1016.8 0.0
16/04:30am 8.3 4.7 3.2 70 2.2 SW 11 15 6 8 1016.7 1016.7 0.0
16/04:00am 7.8 4.5 2.7 70 2.1 WSW 9 15 5 8 1017.0 1017.0 0.0
16/03:30am 8.1 4.1 3.0 70 2.2 W 13 17 7 9 1017.2 1017.2 0.0
16/03:00am 7.3 4.0 2.2 70 2.1 SW 9 11 5 6 1017.2 1017.2 0.0
16/02:30am 8.0 4.8 2.9 70 2.2 SSW 9 15 5 8 1017.4 1017.4 0.0
16/02:00am 6.7 3.4 2.4 74 1.8 WSW 9 11 5 6 1017.6 1017.6 0.0
16/01:30am 7.2 3.9 2.3 71 2.0 WSW 9 15 5 8 1017.8 1017.8 0.0
16/01:00am 8.8 6.0 2.2 63 2.8 WNW 6 11 3 6 1017.9 1017.9 0.0
16/12:30am 10.2 6.2 2.6 59 3.3 WNW 13 19 7 10 1018.0 1018.0 0.0
16/12:00am 10.9 5.7 2.7 57 3.5 W 19 24 10 13 1018.0 1018.0 0.0
 
Date/Time
EST
Temp
°C
App
Temp
°C
Dew
Point
°C
Rel
Hum
%
Delta-T
°C
Wind Press
QNH
hPa
Press
MSL
hPa
Rain since
9am
mm
Dir  Spd
km/h
Gust
km/h
Spd
kts
Gust
kts
15/11:30pm 10.2 6.9 2.6 59 3.3 W 9 13 5 7 1018.3 1018.3 0.0
15/11:00pm 10.7 7.4 2.3 56 3.6 WNW 9 15 5 8 1018.5 1018.5 0.0
15/10:30pm 11.2 6.8 2.5 55 3.8 WNW 15 20 8 11 1018.6 1018.6 0.0
15/10:00pm 10.6 6.5 2.2 56 3.6 W 13 19 7 10 1018.5 1018.5 0.0
15/09:30pm 10.6 5.7 2.2 56 3.6 W 17 20 9 11 1018.8 1018.8 0.0
15/09:00pm 10.5 6.4 2.1 56 3.6 W 13 17 7 9 1018.9 1018.9 0.0
15/08:30pm 11.0 6.9 2.3 55 3.7 W 13 19 7 10 1019.0 1019.0 0.0
15/08:00pm 11.8 6.9 2.3 52 4.1 W 17 26 9 14 1018.9 1018.9 0.0
15/07:30pm 12.3 7.4 2.2 50 4.4 W 17 24 9 13 1019.2 1019.2 0.0
15/07:00pm 12.8 6.6 2.1 48 4.6 W 24 37 13 20 1018.9 1018.9 0.0
15/06:30pm 12.3 7.8 1.9 49 4.5 WSW 15 22 8 12 1018.6 1018.6 0.0
15/06:00pm 12.6 9.5 1.3 46 4.8 W 7 9 4 5 1018.5 1018.5 0.0
15/05:30pm 13.3 9.4 1.3 44 5.1 WSW 11 19 6 10 1017.8 1017.8 0.0
15/05:00pm 14.4 9.7 1.0 40 5.8 W 15 24 8 13 1017.3 1017.3 0.0

Other formats

Comma delimited format used in spreadsheet applications
http://www.bom.gov.au/fwo/IDN60801/IDN60801.95761.axf

JavaScript Object Notation format (JSON) in row-major order
http://www.bom.gov.au/fwo/IDN60801/IDN60801.95761.json

Data quality

Most of these data are generated automatically and are frequently updated. Quality checks on data are not normally performed. It is possible for incorrect values to appear. Refer to information at About Latest Weather Observations and please check the disclaimer before using these data.